Time;durP1;ratioP1;P1;durP2;ratioP2;P2;SDS_P1;SDS_P2;PMS_P1;PMS_P2;Temp;Humidity;BMP_temperature;BMP_pressure;BME280_temperature;BME280_humidity;BME280_pressure;Samples;Min_cycle;Max_cycle;Signal;HPM_P1;HPM_P2
2024/01/21 00:02:24;;;;;;;10.65;2.60;;;5.20;99.90;;;;;;4998933;28;20051;-71
2024/01/21 00:04:50;;;;;;;7.82;2.28;;;5.20;99.90;;;;;;4996687;28;20050;-70
2024/01/21 00:07:18;;;;;;;7.60;2.58;;;5.20;99.90;;;;;;5005412;28;20544;-70
2024/01/21 00:09:44;;;;;;;9.02;2.38;;;5.20;99.90;;;;;;5000024;28;20069;-71
2024/01/21 00:12:11;;;;;;;11.30;2.28;;;5.20;99.90;;;;;;5006459;28;20046;-71
2024/01/21 00:14:38;;;;;;;8.10;2.20;;;5.20;99.90;;;;;;5000561;28;20131;-71
2024/01/21 00:17:07;;;;;;;16.55;2.47;;;5.20;99.90;;;;;;5005297;28;20461;-71
2024/01/21 00:19:34;;;;;;;9.70;3.50;;;5.20;99.90;;;;;;5015506;28;20050;-71
2024/01/21 00:22:02;;;;;;;7.20;2.05;;;5.20;99.90;;;;;;4998676;28;20174;-70
2024/01/21 00:24:29;;;;;;;6.40;2.50;;;5.20;99.90;;;;;;5000717;28;20421;-70
2024/01/21 00:26:55;;;;;;;5.97;2.10;;;5.30;99.90;;;;;;5007044;28;20049;-70
2024/01/21 00:29:22;;;;;;;10.77;2.90;;;5.20;99.90;;;;;;5000750;28;20081;-69
2024/01/21 00:31:49;;;;;;;10.93;2.22;;;5.30;99.90;;;;;;5005831;28;20110;-71
2024/01/21 00:34:16;;;;;;;11.63;2.67;;;5.30;99.90;;;;;;5004387;28;20090;-70
2024/01/21 00:36:42;;;;;;;8.27;2.00;;;5.20;99.90;;;;;;5002733;28;20057;-71
2024/01/21 00:39:09;;;;;;;7.13;2.50;;;5.20;99.90;;;;;;5005965;28;20050;-71
2024/01/21 00:41:36;;;;;;;5.88;2.10;;;5.30;99.90;;;;;;5003293;28;20113;-71
2024/01/21 00:44:05;;;;;;;9.68;3.15;;;5.30;99.90;;;;;;5005750;28;20046;-71
2024/01/21 00:46:32;;;;;;;10.63;3.15;;;5.30;99.90;;;;;;5001096;28;20080;-71
2024/01/21 00:48:59;;;;;;;8.48;3.20;;;5.30;99.90;;;;;;5006835;28;20434;-70
2024/01/21 00:51:26;;;;;;;6.72;2.72;;;5.30;99.90;;;;;;5004593;28;20045;-70
2024/01/21 00:53:53;;;;;;;12.98;2.50;;;5.30;99.90;;;;;;5004095;28;20053;-71
2024/01/21 00:56:20;;;;;;;6.88;2.40;;;5.30;99.90;;;;;;5004451;28;20042;-71
2024/01/21 00:58:47;;;;;;;13.80;3.13;;;5.30;99.90;;;;;;5002734;28;20052;-71
2024/01/21 01:01:14;;;;;;;7.65;2.47;;;5.30;99.90;;;;;;5005370;28;20557;-71
2024/01/21 01:03:41;;;;;;;10.07;2.78;;;5.30;99.90;;;;;;5005554;28;20050;-71
2024/01/21 01:06:08;;;;;;;13.05;3.13;;;5.30;99.90;;;;;;5000426;28;20410;-72
2024/01/21 01:08:35;;;;;;;10.15;4.38;;;5.30;99.90;;;;;;5001765;28;20054;-71
2024/01/21 01:11:01;;;;;;;12.88;3.58;;;5.30;99.90;;;;;;5001351;28;20038;-70
2024/01/21 01:13:28;;;;;;;13.63;3.28;;;5.30;99.90;;;;;;5004125;28;20100;-70
2024/01/21 01:15:55;;;;;;;14.18;3.10;;;5.40;99.90;;;;;;5003618;28;20070;-70
2024/01/21 01:18:22;;;;;;;13.05;3.47;;;5.30;99.90;;;;;;5002206;28;20049;-70
2024/01/21 01:20:49;;;;;;;16.77;3.72;;;5.30;99.90;;;;;;5003224;28;20050;-70
2024/01/21 01:23:16;;;;;;;10.70;2.78;;;5.40;99.90;;;;;;4997904;28;20045;-70
2024/01/21 01:25:42;;;;;;;12.63;3.50;;;5.30;99.90;;;;;;5002204;28;20038;-70
2024/01/21 01:28:09;;;;;;;11.65;2.97;;;5.30;99.90;;;;;;4998618;28;20501;-70
2024/01/21 01:30:36;;;;;;;12.27;5.90;;;5.30;99.90;;;;;;5004718;28;20049;-70
2024/01/21 01:33:03;;;;;;;10.20;3.13;;;5.30;99.90;;;;;;5002382;28;20073;-70
2024/01/21 01:35:30;;;;;;;13.10;4.47;;;5.30;99.90;;;;;;5004173;28;20047;-70
2024/01/21 01:37:57;;;;;;;9.63;3.42;;;5.30;99.90;;;;;;5001024;28;20160;-69
2024/01/21 01:40:24;;;;;;;14.65;4.85;;;5.30;99.90;;;;;;5005791;28;20046;-70
2024/01/21 01:42:57;;;;;;;15.23;3.40;;;5.30;99.90;;;;;;4998184;28;20091;-71
2024/01/21 01:45:24;;;;;;;17.25;3.20;;;5.30;99.90;;;;;;5005301;28;20251;-70
2024/01/21 01:47:51;;;;;;;16.63;3.10;;;5.40;99.90;;;;;;5015769;28;20049;-69
2024/01/21 01:50:18;;;;;;;11.45;3.45;;;5.30;99.90;;;;;;4999716;28;20484;-70
2024/01/21 01:52:45;;;;;;;9.70;3.03;;;5.30;99.90;;;;;;4999399;28;20225;-70
2024/01/21 01:55:12;;;;;;;9.02;4.15;;;5.30;99.90;;;;;;5002633;28;20116;-70
2024/01/21 01:57:39;;;;;;;9.48;3.20;;;5.30;99.90;;;;;;5004379;28;20072;-70
2024/01/21 02:00:06;;;;;;;13.93;4.38;;;5.30;99.90;;;;;;5000439;28;20127;-70
2024/01/21 02:02:34;;;;;;;12.70;4.30;;;5.30;99.90;;;;;;5016369;28;20501;-70
2024/01/21 02:05:03;;;;;;;17.67;3.63;;;5.30;99.90;;;;;;5003896;28;20088;-70
2024/01/21 02:07:30;;;;;;;13.88;4.43;;;5.20;99.90;;;;;;4998771;28;20450;-70
2024/01/21 02:09:58;;;;;;;9.43;4.18;;;5.20;99.90;;;;;;5003115;28;20076;-70
2024/01/21 02:12:25;;;;;;;14.25;4.93;;;5.20;99.90;;;;;;4999584;28;20049;-70
2024/01/21 02:14:52;;;;;;;12.23;5.43;;;5.20;99.90;;;;;;4999252;28;20049;-70
2024/01/21 02:17:18;;;;;;;14.23;4.32;;;5.20;99.90;;;;;;5001930;28;20111;-70
2024/01/21 02:19:45;;;;;;;10.98;4.53;;;5.20;99.90;;;;;;4999200;28;20363;-70
2024/01/21 02:22:15;;;;;;;11.52;4.70;;;5.20;99.90;;;;;;4999535;28;20045;-71
2024/01/21 02:24:42;;;;;;;10.85;4.05;;;5.20;99.90;;;;;;5001087;28;20077;-70
2024/01/21 02:27:08;;;;;;;13.07;4.03;;;5.10;99.90;;;;;;5002424;28;20073;-71
2024/01/21 02:29:36;;;;;;;17.20;5.22;;;5.10;99.90;;;;;;4996666;28;20112;-70
2024/01/21 02:32:03;;;;;;;16.65;5.00;;;5.10;99.90;;;;;;5004360;28;20046;-70
2024/01/21 02:34:31;;;;;;;12.77;4.57;;;5.10;99.90;;;;;;5000478;28;20100;-70
2024/01/21 02:36:58;;;;;;;17.83;4.78;;;5.10;99.90;;;;;;5004937;28;20042;-70
2024/01/21 02:39:24;;;;;;;14.68;5.40;;;5.00;99.90;;;;;;4994557;28;20101;-69
2024/01/21 02:41:51;;;;;;;20.10;5.18;;;5.00;99.90;;;;;;5006162;28;20073;-70
2024/01/21 02:44:18;;;;;;;15.70;6.63;;;5.00;99.90;;;;;;4998590;28;20605;-70
2024/01/21 02:46:45;;;;;;;17.42;5.75;;;5.00;99.90;;;;;;4999994;28;20084;-70
2024/01/21 02:49:12;;;;;;;16.48;5.93;;;5.00;99.90;;;;;;4999358;28;20221;-72
2024/01/21 02:51:39;;;;;;;17.45;5.80;;;5.00;99.90;;;;;;5002321;28;20530;-71
2024/01/21 02:54:05;;;;;;;15.63;5.47;;;4.90;99.90;;;;;;5001901;28;20056;-69
2024/01/21 02:56:32;;;;;;;9.70;5.78;;;4.90;99.90;;;;;;5003481;28;20104;-69
2024/01/21 02:58:59;;;;;;;17.23;6.78;;;4.90;99.90;;;;;;5002371;28;20053;-69
2024/01/21 03:01:26;;;;;;;10.38;4.95;;;4.80;99.90;;;;;;4998609;28;20225;-70
2024/01/21 03:03:53;;;;;;;22.08;7.18;;;4.80;99.90;;;;;;5002858;28;20065;-70
2024/01/21 03:06:20;;;;;;;19.63;7.15;;;4.80;99.90;;;;;;4997493;28;20061;-71
2024/01/21 03:08:47;;;;;;;24.15;8.40;;;4.70;99.90;;;;;;5007388;28;20050;-71
2024/01/21 03:11:14;;;;;;;26.20;7.43;;;4.70;99.90;;;;;;5002017;28;20057;-71
2024/01/21 03:13:41;;;;;;;18.85;6.38;;;4.70;99.90;;;;;;5002627;28;20064;-71
2024/01/21 03:16:07;;;;;;;17.50;7.38;;;4.70;99.90;;;;;;4997782;28;20053;-71
2024/01/21 03:18:38;;;;;;;12.00;7.30;;;4.70;99.90;;;;;;4995670;28;20493;-70
2024/01/21 03:21:06;;;;;;;16.42;6.40;;;4.70;99.90;;;;;;4997078;28;20505;-71
2024/01/21 03:23:34;;;;;;;14.05;5.95;;;4.70;99.90;;;;;;5001601;28;20331;-70
2024/01/21 03:26:00;;;;;;;13.93;7.10;;;4.50;99.90;;;;;;5001286;28;20053;-70
2024/01/21 03:28:27;;;;;;;13.20;6.72;;;4.50;99.90;;;;;;5001485;28;20056;-71
2024/01/21 03:30:54;;;;;;;16.00;7.22;;;4.50;99.90;;;;;;4997742;28;20082;-71
2024/01/21 03:33:21;;;;;;;15.23;7.07;;;4.50;99.90;;;;;;5002237;28;20054;-72
2024/01/21 03:35:48;;;;;;;18.55;6.47;;;4.50;99.90;;;;;;5001934;28;20072;-71
2024/01/21 03:38:15;;;;;;;11.02;6.43;;;4.50;99.90;;;;;;5016628;28;20053;-71
2024/01/21 03:40:42;;;;;;;20.60;6.05;;;4.50;99.90;;;;;;4997477;28;20124;-71
2024/01/21 03:43:08;;;;;;;10.90;5.68;;;4.50;99.90;;;;;;5002477;28;20046;-72
2024/01/21 03:45:35;;;;;;;8.15;4.95;;;4.50;99.90;;;;;;5000188;28;20447;-72
2024/01/21 03:48:03;;;;;;;11.60;5.47;;;4.60;99.90;;;;;;5002756;28;20125;-72
2024/01/21 03:50:30;;;;;;;16.58;6.32;;;4.60;99.90;;;;;;5015571;28;20341;-71
2024/01/21 03:52:57;;;;;;;10.80;4.78;;;4.60;99.90;;;;;;5006367;28;20112;-71
2024/01/21 03:55:23;;;;;;;15.13;5.30;;;4.60;99.90;;;;;;5010412;28;20272;-71
2024/01/21 03:57:50;;;;;;;9.15;4.75;;;4.70;99.90;;;;;;5002461;28;20073;-71
2024/01/21 04:00:17;;;;;;;13.40;5.13;;;4.80;99.90;;;;;;5007879;28;20141;-71
2024/01/21 04:02:44;;;;;;;13.52;5.25;;;4.80;99.90;;;;;;4997168;28;20056;-71
2024/01/21 04:05:11;;;;;;;11.20;5.30;;;4.90;99.90;;;;;;4998272;28;20512;-71
2024/01/21 04:07:38;;;;;;;11.30;4.90;;;4.90;99.90;;;;;;5004374;28;20121;-71
2024/01/21 04:10:06;;;;;;;16.85;5.70;;;4.90;99.90;;;;;;5008052;28;20120;-69
2024/01/21 04:12:33;;;;;;;9.95;4.97;;;4.90;99.90;;;;;;5000694;28;20072;-70
2024/01/21 04:15:00;;;;;;;12.50;5.10;;;5.00;99.90;;;;;;5007865;28;20489;-71
2024/01/21 04:17:27;;;;;;;16.05;4.90;;;5.00;99.90;;;;;;5000429;28;20041;-70
2024/01/21 04:19:54;;;;;;;10.82;3.45;;;5.10;99.90;;;;;;5003512;28;20053;-71
2024/01/21 04:22:21;;;;;;;7.15;3.40;;;5.20;99.90;;;;;;5002566;28;20123;-70
2024/01/21 04:24:48;;;;;;;6.93;2.83;;;5.20;99.90;;;;;;5004676;28;20056;-69
2024/01/21 04:27:15;;;;;;;11.93;4.40;;;5.20;99.90;;;;;;4999891;28;20052;-70
2024/01/21 04:29:42;;;;;;;6.88;3.65;;;5.40;99.90;;;;;;5003763;28;20050;-70
2024/01/21 04:32:09;;;;;;;4.85;2.55;;;5.40;99.90;;;;;;5002927;28;20049;-70
2024/01/21 04:34:36;;;;;;;7.95;3.20;;;5.50;99.90;;;;;;5003518;28;20046;-70
2024/01/21 04:37:03;;;;;;;7.93;3.40;;;5.60;99.90;;;;;;5005476;28;20128;-70
2024/01/21 04:39:30;;;;;;;5.93;3.50;;;5.60;99.90;;;;;;5003244;28;20108;-71
2024/01/21 04:41:57;;;;;;;14.57;4.78;;;5.70;99.90;;;;;;5003624;28;20074;-70
2024/01/21 04:44:24;;;;;;;9.77;3.65;;;5.70;99.90;;;;;;5002566;28;20050;-70
2024/01/21 04:46:51;;;;;;;9.38;4.35;;;5.80;99.90;;;;;;5005499;28;20228;-70
2024/01/21 04:49:17;;;;;;;12.57;4.82;;;5.80;99.90;;;;;;4999027;28;20397;-71
2024/01/21 04:51:44;;;;;;;12.07;4.05;;;5.80;99.90;;;;;;5002397;28;20049;-71
2024/01/21 04:54:11;;;;;;;11.55;4.43;;;5.80;99.90;;;;;;5004260;28;20127;-71
2024/01/21 04:56:38;;;;;;;11.40;4.57;;;5.90;99.90;;;;;;5004814;28;20049;-71
2024/01/21 04:59:05;;;;;;;11.25;4.45;;;5.90;99.90;;;;;;5000699;28;20096;-70
2024/01/21 05:01:32;;;;;;;11.90;4.32;;;6.00;99.90;;;;;;5009670;28;20057;-71
2024/01/21 05:03:59;;;;;;;15.77;5.00;;;6.00;99.90;;;;;;4999489;28;20057;-71
2024/01/21 05:06:26;;;;;;;16.52;4.65;;;6.00;99.90;;;;;;5001921;28;20057;-70
2024/01/21 05:08:54;;;;;;;11.60;4.18;;;6.10;99.90;;;;;;5000165;28;20152;-71
2024/01/21 05:11:20;;;;;;;13.32;4.22;;;6.10;99.90;;;;;;4998520;28;20096;-70
2024/01/21 05:13:47;;;;;;;8.95;4.32;;;6.10;99.90;;;;;;4994590;28;20049;-71
2024/01/21 05:16:18;;;;;;;13.43;5.43;;;6.10;99.90;;;;;;5004646;28;20056;-71
2024/01/21 05:18:45;;;;;;;12.80;4.43;;;6.10;99.90;;;;;;5002919;28;20092;-70
2024/01/21 05:21:19;;;;;;;20.52;4.75;;;6.10;99.90;;;;;;5003524;28;20050;-71
2024/01/21 05:23:47;;;;;;;8.05;4.25;;;6.10;99.90;;;;;;5004472;28;20545;-71
2024/01/21 05:26:13;;;;;;;11.68;4.63;;;6.10;99.90;;;;;;5000547;28;20083;-71
2024/01/21 05:28:40;;;;;;;12.68;3.88;;;6.20;99.90;;;;;;5001682;28;20045;-71
2024/01/21 05:31:07;;;;;;;13.27;4.57;;;6.20;99.90;;;;;;5000702;28;20090;-72
2024/01/21 05:33:34;;;;;;;11.63;3.85;;;6.20;99.90;;;;;;5005562;28;20111;-71
2024/01/21 05:36:01;;;;;;;12.95;5.03;;;6.30;99.90;;;;;;5001897;28;20042;-71
2024/01/21 05:38:28;;;;;;;12.80;3.90;;;6.40;99.90;;;;;;5005170;28;20061;-71
2024/01/21 05:40:55;;;;;;;16.48;6.10;;;6.40;99.90;;;;;;4998954;28;20136;-71
2024/01/21 05:43:21;;;;;;;11.57;4.53;;;6.50;99.90;;;;;;4989454;28;20374;-71
2024/01/21 05:45:48;;;;;;;14.02;4.55;;;6.50;99.90;;;;;;5000693;28;20074;-71
2024/01/21 05:48:15;;;;;;;9.98;4.00;;;6.60;99.90;;;;;;5005895;28;20056;-71
2024/01/21 05:50:42;;;;;;;13.20;5.13;;;6.60;99.90;;;;;;4999512;28;20052;-70
2024/01/21 05:53:09;;;;;;;9.60;3.90;;;6.70;99.90;;;;;;5003131;28;20125;-70
2024/01/21 05:55:36;;;;;;;16.17;5.25;;;6.70;99.90;;;;;;5019982;28;20045;-72
2024/01/21 05:58:03;;;;;;;16.77;4.25;;;6.80;99.90;;;;;;5003268;28;20214;-70
2024/01/21 06:00:29;;;;;;;27.67;9.02;;;6.80;99.90;;;;;;5002171;28;20120;-71
2024/01/21 06:02:56;;;;;;;19.75;4.25;;;6.80;99.90;;;;;;5004336;28;20053;-71
2024/01/21 06:05:23;;;;;;;10.90;5.28;;;6.90;99.90;;;;;;5002159;28;20050;-71
2024/01/21 06:07:50;;;;;;;20.83;5.20;;;6.90;99.90;;;;;;5001312;28;20049;-71
2024/01/21 06:10:17;;;;;;;19.35;4.20;;;6.90;99.90;;;;;;5004902;28;20057;-70
2024/01/21 06:12:44;;;;;;;15.80;4.90;;;7.00;99.90;;;;;;5001699;28;20050;-73
2024/01/21 06:15:12;;;;;;;20.50;3.33;;;7.00;99.90;;;;;;5006316;28;20046;-73
2024/01/21 06:17:39;;;;;;;8.57;3.85;;;7.10;99.90;;;;;;5000426;28;20042;-72
2024/01/21 06:20:07;;;;;;;9.80;3.80;;;7.10;99.90;;;;;;5004632;28;20522;-72
2024/01/21 06:22:34;;;;;;;13.35;3.33;;;7.10;99.90;;;;;;4998540;28;20468;-72
2024/01/21 06:25:01;;;;;;;9.68;2.72;;;7.20;99.90;;;;;;5008910;28;20054;-72
2024/01/21 06:27:28;;;;;;;10.60;2.42;;;7.30;99.90;;;;;;5013467;28;20053;-71
2024/01/21 06:29:56;;;;;;;12.40;3.03;;;7.30;99.90;;;;;;5005317;28;20049;-72
2024/01/21 06:32:23;;;;;;;16.45;2.50;;;7.40;99.90;;;;;;5000790;28;20056;-72
2024/01/21 06:34:49;;;;;;;18.08;3.50;;;7.40;99.90;;;;;;5005802;28;20168;-71
2024/01/21 06:37:16;;;;;;;12.05;2.92;;;7.40;99.90;;;;;;5001011;28;20129;-71
2024/01/21 06:39:43;;;;;;;17.95;3.10;;;7.50;99.90;;;;;;4999256;28;20394;-71
2024/01/21 06:42:25;;;;;;;15.68;5.20;;;7.50;99.90;;;;;;4998167;28;20042;-71
2024/01/21 06:44:52;;;;;;;8.65;3.25;;;7.50;99.90;;;;;;5002506;28;20061;-72
2024/01/21 06:47:19;;;;;;;16.63;3.40;;;7.50;99.90;;;;;;4998861;28;20073;-71
2024/01/21 06:49:45;;;;;;;9.88;2.60;;;7.60;99.90;;;;;;5005684;28;20060;-71
2024/01/21 06:52:13;;;;;;;13.50;2.70;;;7.60;99.90;;;;;;4999701;28;20049;-74
2024/01/21 06:54:40;;;;;;;15.98;3.70;;;7.60;99.90;;;;;;5001265;28;20062;-72
2024/01/21 06:57:07;;;;;;;15.93;4.93;;;7.60;99.90;;;;;;5001375;28;20084;-73
2024/01/21 06:59:33;;;;;;;16.63;5.53;;;7.70;99.90;;;;;;5004718;28;20374;-71
2024/01/21 07:02:00;;;;;;;10.73;3.47;;;7.70;99.90;;;;;;5002827;28;20064;-71
2024/01/21 07:04:27;;;;;;;14.82;3.42;;;7.70;99.90;;;;;;5003036;28;20143;-71
2024/01/21 07:06:54;;;;;;;8.95;2.85;;;7.70;99.90;;;;;;5003747;28;20042;-72
2024/01/21 07:09:21;;;;;;;16.17;3.00;;;7.60;99.90;;;;;;4998545;28;20060;-71
2024/01/21 07:11:47;;;;;;;13.20;2.88;;;7.60;99.90;;;;;;5002861;28;20248;-72
2024/01/21 07:14:14;;;;;;;7.75;2.03;;;7.60;99.90;;;;;;4999527;28;20073;-72
2024/01/21 07:16:41;;;;;;;7.93;1.73;;;7.70;99.90;;;;;;4997413;28;20082;-72
2024/01/21 07:19:08;;;;;;;7.38;1.95;;;7.80;99.90;;;;;;4998326;28;20041;-72
2024/01/21 07:21:35;;;;;;;12.07;2.45;;;7.80;99.90;;;;;;5002539;28;20053;-72
2024/01/21 07:24:01;;;;;;;5.85;1.63;;;7.90;99.90;;;;;;5000119;28;20131;-72
2024/01/21 07:26:29;;;;;;;5.78;1.50;;;7.90;99.90;;;;;;5005090;28;20049;-71
2024/01/21 07:28:55;;;;;;;5.28;1.55;;;8.00;99.90;;;;;;5000696;28;20328;-71
2024/01/21 07:31:22;;;;;;;9.77;2.00;;;8.00;99.90;;;;;;4997683;28;20045;-72
2024/01/21 07:33:50;;;;;;;13.20;2.67;;;8.00;99.90;;;;;;4998486;28;20042;-70
2024/01/21 07:36:17;;;;;;;9.10;2.47;;;8.00;99.90;;;;;;5006104;28;20133;-71
2024/01/21 07:38:44;;;;;;;9.07;3.22;;;8.10;99.90;;;;;;4997655;28;20136;-70
2024/01/21 07:41:10;;;;;;;12.30;2.83;;;8.10;99.90;;;;;;5000244;28;20054;-71
2024/01/21 07:43:37;;;;;;;18.00;3.22;;;8.10;99.90;;;;;;4998923;28;20046;-70
2024/01/21 07:46:05;;;;;;;10.15;3.35;;;8.00;99.90;;;;;;5000247;28;20116;-70
2024/01/21 07:48:32;;;;;;;11.45;2.95;;;8.10;99.90;;;;;;5002925;28;20131;-70
2024/01/21 07:50:59;;;;;;;14.23;3.15;;;8.10;99.90;;;;;;5000275;28;20496;-71
2024/01/21 07:53:25;;;;;;;15.13;3.53;;;8.10;99.90;;;;;;5001967;28;20300;-69
2024/01/21 07:55:54;;;;;;;16.80;3.22;;;8.10;99.90;;;;;;4997028;28;20441;-69
2024/01/21 07:58:20;;;;;;;19.67;3.13;;;8.10;99.90;;;;;;5000384;28;20141;-70
2024/01/21 08:00:47;;;;;;;14.55;3.20;;;8.20;99.90;;;;;;5000025;28;20046;-70
2024/01/21 08:03:15;;;;;;;16.80;3.78;;;8.20;99.90;;;;;;4997195;28;20046;-71
2024/01/21 08:05:42;;;;;;;8.68;2.88;;;8.30;99.90;;;;;;4996592;28;20053;-70
2024/01/21 08:08:09;;;;;;;10.48;2.80;;;8.30;99.90;;;;;;5002359;28;20070;-70
2024/01/21 08:10:35;;;;;;;29.40;8.00;;;8.30;99.90;;;;;;4998958;28;20088;-70
2024/01/21 08:13:02;;;;;;;18.98;2.47;;;8.30;99.90;;;;;;5003211;28;20050;-70
2024/01/21 08:15:29;;;;;;;17.13;3.40;;;8.40;99.90;;;;;;4998372;28;20057;-70
2024/01/21 08:17:56;;;;;;;13.82;2.63;;;8.40;99.90;;;;;;4999618;28;20257;-71
2024/01/21 08:20:23;;;;;;;21.67;3.97;;;8.50;99.90;;;;;;5003135;28;20145;-71
2024/01/21 08:22:49;;;;;;;19.52;3.30;;;8.50;99.90;;;;;;5005989;28;20474;-71
2024/01/21 08:25:16;;;;;;;26.75;4.43;;;8.50;99.90;;;;;;5003083;28;20147;-71
2024/01/21 08:27:43;;;;;;;23.30;5.65;;;8.60;99.90;;;;;;5017038;28;20092;-71
2024/01/21 08:30:11;;;;;;;17.95;3.97;;;8.60;99.90;;;;;;5004618;28;20128;-73
2024/01/21 08:32:38;;;;;;;20.10;3.58;;;8.60;99.90;;;;;;5016819;28;20073;-70
2024/01/21 08:35:06;;;;;;;27.98;5.80;;;8.60;99.90;;;;;;4999778;28;20513;-71
2024/01/21 08:37:33;;;;;;;29.02;4.07;;;8.70;99.90;;;;;;4999080;28;20148;-70
2024/01/21 08:40:00;;;;;;;31.77;5.03;;;8.70;99.90;;;;;;5002253;28;20054;-70
2024/01/21 08:42:27;;;;;;;26.92;8.60;;;8.70;99.90;;;;;;4998772;28;20057;-71
2024/01/21 08:44:54;;;;;;;22.38;5.50;;;8.70;99.90;;;;;;5006040;28;20057;-71
2024/01/21 08:47:21;;;;;;;29.73;4.85;;;8.80;99.90;;;;;;5000436;28;20092;-70
2024/01/21 08:49:48;;;;;;;30.83;4.80;;;8.80;99.90;;;;;;5005267;28;20129;-71
2024/01/21 08:52:15;;;;;;;28.77;5.05;;;8.80;99.90;;;;;;4992742;28;20042;-70
2024/01/21 08:54:42;;;;;;;37.72;7.43;;;8.80;99.90;;;;;;5021194;28;20096;-71
2024/01/21 08:57:09;;;;;;;31.33;5.07;;;8.90;99.90;;;;;;5004188;28;20124;-71
2024/01/21 08:59:36;;;;;;;34.28;7.10;;;8.90;99.90;;;;;;5006889;28;20517;-71
2024/01/21 09:02:03;;;;;;;30.10;4.28;;;8.90;99.90;;;;;;5000795;28;20429;-71
2024/01/21 09:04:30;;;;;;;29.35;5.13;;;8.90;99.90;;;;;;5020554;28;20323;-69
2024/01/21 09:06:57;;;;;;;21.98;5.45;;;8.90;99.90;;;;;;5004312;28;20102;-69
2024/01/21 09:09:24;;;;;;;37.00;5.88;;;9.00;99.90;;;;;;5020356;28;20060;-69
2024/01/21 09:11:51;;;;;;;26.58;4.65;;;9.10;99.90;;;;;;5000862;28;20521;-69
2024/01/21 09:14:18;;;;;;;33.63;5.75;;;9.10;99.90;;;;;;5010396;28;20045;-69
2024/01/21 09:16:45;;;;;;;30.27;6.60;;;9.10;99.90;;;;;;5004388;28;20049;-69
2024/01/21 09:19:12;;;;;;;29.88;5.30;;;9.10;99.90;;;;;;5001748;28;20081;-71
2024/01/21 09:21:39;;;;;;;32.60;5.63;;;9.20;99.90;;;;;;5004378;28;20081;-70
2024/01/21 09:24:07;;;;;;;29.90;5.88;;;9.20;99.90;;;;;;5002489;28;20637;-70
2024/01/21 09:26:34;;;;;;;52.85;10.32;;;9.20;99.90;;;;;;4999363;28;20046;-70
2024/01/21 09:29:00;;;;;;;45.10;11.20;;;9.30;99.90;;;;;;5016361;28;20049;-68
2024/01/21 09:31:27;;;;;;;39.10;8.13;;;9.30;99.90;;;;;;4998397;28;20521;-68
2024/01/21 09:33:56;;;;;;;40.30;7.88;;;9.30;99.90;;;;;;4996690;28;20346;-70
2024/01/21 09:36:23;;;;;;;37.85;8.40;;;9.40;99.90;;;;;;5002802;28;20054;-70
2024/01/21 09:38:53;;;;;;;40.20;7.93;;;9.40;99.90;;;;;;4998717;28;20417;-69
2024/01/21 09:41:38;;;;;;;33.28;5.97;;;9.50;99.90;;;;;;5004609;28;20049;-69
2024/01/21 09:44:05;;;;;;;30.98;6.78;;;9.50;99.90;;;;;;5001379;28;20468;-69
2024/01/21 09:46:32;;;;;;;38.05;5.85;;;9.50;99.90;;;;;;5003871;28;20527;-70
2024/01/21 09:49:00;;;;;;;26.95;5.72;;;9.60;99.90;;;;;;5000618;28;20446;-71
2024/01/21 09:51:31;;;;;;;42.20;6.63;;;9.70;99.90;;;;;;5006084;28;20129;-71
2024/01/21 09:54:00;;;;;;;44.17;6.22;;;9.70;99.90;;;;;;5000930;28;20315;-69
2024/01/21 09:56:27;;;;;;;28.38;5.75;;;9.80;99.90;;;;;;5003301;28;20145;-69
2024/01/21 09:58:54;;;;;;;30.77;6.05;;;9.80;99.90;;;;;;5017551;28;20050;-70
2024/01/21 10:01:21;;;;;;;32.90;6.43;;;9.80;99.90;;;;;;5017289;28;20152;-71
2024/01/21 10:03:49;;;;;;;30.63;7.50;;;9.90;99.90;;;;;;4996465;28;20552;-70
2024/01/21 10:06:18;;;;;;;36.17;6.00;;;9.90;99.90;;;;;;5002355;28;20042;-69
2024/01/21 10:08:45;;;;;;;32.13;5.32;;;9.90;99.90;;;;;;5003841;28;20474;-69
2024/01/21 10:11:12;;;;;;;40.10;6.30;;;10.00;99.90;;;;;;5014394;28;20065;-71
2024/01/21 10:13:39;;;;;;;36.88;5.65;;;10.00;99.90;;;;;;4995787;28;20085;-69
2024/01/21 10:16:06;;;;;;;42.97;5.78;;;10.00;99.90;;;;;;4999285;28;20076;-70
2024/01/21 10:18:34;;;;;;;38.22;7.28;;;10.10;99.90;;;;;;5001222;28;20046;-69
2024/01/21 10:21:05;;;;;;;39.40;8.43;;;10.10;99.90;;;;;;5001274;28;20103;-69
2024/01/21 10:23:32;;;;;;;44.10;6.30;;;10.10;99.90;;;;;;5018434;28;20444;-71
2024/01/21 10:26:00;;;;;;;43.80;7.90;;;10.20;99.90;;;;;;5014650;28;20054;-70
2024/01/21 10:28:28;;;;;;;36.97;6.65;;;10.20;99.90;;;;;;5003105;28;20050;-69
2024/01/21 10:30:55;;;;;;;33.55;6.13;;;10.30;99.90;;;;;;5002762;28;20041;-69
2024/01/21 10:33:23;;;;;;;43.67;7.93;;;10.30;99.90;;;;;;5000071;28;20085;-68
2024/01/21 10:35:51;;;;;;;47.36;8.69;;;10.40;99.90;;;;;;4661687;28;10001234;-68
2024/01/21 10:38:18;;;;;;;34.88;5.63;;;10.40;99.90;;;;;;4998256;28;20057;-68
2024/01/21 10:40:46;;;;;;;41.90;7.10;;;10.50;99.90;;;;;;5010689;28;20168;-68
2024/01/21 10:43:13;;;;;;;43.85;6.50;;;10.50;99.90;;;;;;4998409;28;20049;-69
2024/01/21 10:45:47;;;;;;;41.40;7.25;;;10.60;99.90;;;;;;5011042;28;20057;-68
2024/01/21 10:48:16;;;;;;;42.78;8.02;;;10.60;99.90;;;;;;4997166;28;20050;-68
2024/01/21 10:50:43;;;;;;;56.65;10.35;;;10.70;99.90;;;;;;4996398;28;20409;-69
2024/01/21 10:53:11;;;;;;;35.90;6.43;;;10.70;99.90;;;;;;4982477;28;20153;-67
2024/01/21 10:55:42;;;;;;;44.88;7.18;;;10.80;99.90;;;;;;4998213;28;20049;-68
2024/01/21 10:58:09;;;;;;;37.15;5.90;;;10.80;99.90;;;;;;4998314;28;20054;-68
2024/01/21 11:00:37;;;;;;;51.47;6.65;;;10.80;99.90;;;;;;4998977;28;20083;-68
2024/01/21 11:03:23;;;;;;;45.38;7.85;;;10.90;99.90;;;;;;4999894;28;20137;-69
2024/01/21 11:06:01;;;;;;;26.77;6.03;;;10.90;99.90;;;;;;4994564;28;20125;-68
2024/01/21 11:08:29;;;;;;;39.50;7.63;;;10.90;99.90;;;;;;4999758;28;20049;-67
2024/01/21 11:11:17;;;;;;;37.97;7.40;;;10.90;99.90;;;;;;4997305;28;20051;-68
2024/01/21 11:13:45;;;;;;;48.97;6.53;;;10.90;99.90;;;;;;5001725;28;20572;-68
2024/01/21 11:16:30;;;;;;;46.35;7.50;;;10.90;99.90;;;;;;4994334;28;20472;-68
2024/01/21 11:19:07;;;;;;;36.78;6.63;;;10.90;99.90;;;;;;5000581;28;20120;-68
2024/01/21 11:21:41;;;;;;;41.78;7.07;;;10.90;99.90;;;;;;4996824;28;20046;-68
2024/01/21 11:24:13;;;;;;;34.83;7.25;;;10.90;99.90;;;;;;4995583;28;20060;-68
2024/01/21 11:26:41;;;;;;;33.08;6.78;;;10.90;99.90;;;;;;4996232;28;20417;-68
2024/01/21 11:29:29;;;;;;;41.28;6.97;;;10.80;99.90;;;;;;5001460;28;20485;-68
2024/01/21 11:32:06;;;;;;;41.42;5.72;;;10.90;99.90;;;;;;4998097;28;20492;-68
2024/01/21 11:34:38;;;;;;;38.08;5.18;;;10.90;99.90;;;;;;5000738;28;20046;-68
2024/01/21 11:37:09;;;;;;;41.38;7.65;;;10.90;99.90;;;;;;4997715;28;20125;-69
2024/01/21 11:39:36;;;;;;;48.85;7.57;;;10.90;99.90;;;;;;5001775;28;20050;-69
2024/01/21 11:42:04;;;;;;;43.72;8.13;;;10.90;99.90;;;;;;4997591;28;20094;-69
2024/01/21 11:44:31;;;;;;;33.60;6.43;;;11.00;99.90;;;;;;4996432;28;20069;-69
2024/01/21 11:47:01;;;;;;;42.28;6.80;;;11.00;99.90;;;;;;4999888;28;20050;-68
2024/01/21 11:49:32;;;;;;;32.03;7.65;;;11.00;99.90;;;;;;5001100;28;20065;-68
2024/01/21 11:52:00;;;;;;;38.28;6.90;;;11.10;99.90;;;;;;5001789;28;20076;-69
2024/01/21 11:54:30;;;;;;;49.08;7.43;;;11.10;99.90;;;;;;4997654;28;20054;-70
2024/01/21 11:56:57;;;;;;;38.55;6.72;;;11.20;99.90;;;;;;5000395;28;20192;-69
2024/01/21 11:59:25;;;;;;;43.40;7.60;;;11.20;99.90;;;;;;5017796;28;20042;-69
2024/01/21 12:01:54;;;;;;;47.00;7.22;;;11.30;99.90;;;;;;5005451;28;20057;-69
2024/01/21 12:04:24;;;;;;;43.72;5.97;;;11.30;99.90;;;;;;5015884;28;20053;-68
2024/01/21 12:06:52;;;;;;;41.17;7.63;;;11.30;99.90;;;;;;5001619;28;20057;-69
2024/01/21 12:09:19;;;;;;;33.65;6.28;;;11.30;99.90;;;;;;5004130;28;20046;-68
2024/01/21 12:11:48;;;;;;;48.50;8.70;;;11.40;99.90;;;;;;4995976;28;20052;-69
2024/01/21 12:14:15;;;;;;;43.15;7.72;;;11.40;99.90;;;;;;5001563;28;20489;-68
2024/01/21 12:16:42;;;;;;;54.63;7.45;;;11.40;99.90;;;;;;5018031;28;20053;-70
2024/01/21 12:19:10;;;;;;;47.35;7.93;;;11.40;99.90;;;;;;5000888;28;20049;-68
2024/01/21 12:21:37;;;;;;;32.38;5.63;;;11.40;99.90;;;;;;5005636;28;20061;-68
2024/01/21 12:24:04;;;;;;;38.15;6.90;;;11.40;99.90;;;;;;5013627;28;20042;-69
2024/01/21 12:26:31;;;;;;;48.33;7.80;;;11.40;99.90;;;;;;5004478;28;20053;-69
2024/01/21 12:29:03;;;;;;;41.22;8.10;;;11.40;99.90;;;;;;5002959;28;20056;-68
2024/01/21 12:31:31;;;;;;;57.45;7.75;;;11.50;99.90;;;;;;5002829;28;20065;-67
2024/01/21 12:34:00;;;;;;;41.03;7.05;;;11.50;99.90;;;;;;5004637;28;20509;-67
2024/01/21 12:36:29;;;;;;;50.10;9.18;;;11.50;99.90;;;;;;5003967;28;20423;-67
2024/01/21 12:38:56;;;;;;;33.40;6.13;;;11.50;99.90;;;;;;4999132;28;20080;-69
2024/01/21 12:41:23;;;;;;;35.65;6.93;;;11.50;99.90;;;;;;5017579;28;20057;-68
2024/01/21 12:43:50;;;;;;;48.58;6.72;;;11.50;99.90;;;;;;5001047;28;20041;-68
2024/01/21 12:46:18;;;;;;;41.78;7.85;;;11.60;99.90;;;;;;5001541;28;20085;-68
2024/01/21 12:48:47;;;;;;;33.63;5.80;;;11.60;99.90;;;;;;5000421;28;20057;-69